Time;durP1;ratioP1;P1;durP2;ratioP2;P2;SDS_P1;SDS_P2;PMS_P1;PMS_P2;Temp;Humidity;BMP_temperature;BMP_pressure;BME280_temperature;BME280_humidity;BME280_pressure;Samples;Min_cycle;Max_cycle;Signal;HPM_P1;HPM_P2
2021/08/12 00:00:40;;;;;;;;;19.00;17.00;;;;;21.04;55.03;101628.09;5043093;28;44858;-93
2021/08/12 00:03:06;;;;;;;;;21.50;18.00;;;;;21.01;55.01;101623.84;5042862;28;47229;-93
2021/08/12 00:05:32;;;;;;;;;20.50;17.00;;;;;20.99;54.88;101612.53;5042647;28;45244;-93
2021/08/12 00:07:57;;;;;;;;;18.75;18.00;;;;;20.98;55.49;101616.13;5042560;28;45494;-93
2021/08/12 00:10:23;;;;;;;;;11.25;10.00;;;;;20.95;55.49;101614.53;5060496;28;45195;-93
2021/08/12 00:12:48;;;;;;;;;18.50;16.25;;;;;20.93;55.74;101613.78;5060039;28;46732;-94
2021/08/12 00:15:13;;;;;;;;;17.00;16.25;;;;;20.91;55.81;101617.47;5042418;28;45368;-93
2021/08/12 00:17:39;;;;;;;;;18.00;18.00;;;;;20.87;55.49;101611.53;5042355;28;45533;-93
2021/08/12 00:20:05;;;;;;;;;22.00;18.75;;;;;20.86;55.90;101608.97;5042915;28;45446;-93
2021/08/12 00:22:31;;;;;;;;;23.50;22.00;;;;;20.84;56.23;101595.84;5042403;28;48538;-93
2021/08/12 00:24:57;;;;;;;;;25.50;24.00;;;;;20.81;55.79;101601.34;5042175;28;45467;-93
2021/08/12 00:27:22;;;;;;;;;24.00;21.50;;;;;20.80;56.25;101604.94;5042386;28;45498;-93
2021/08/12 00:29:49;;;;;;;;;23.50;22.25;;;;;20.78;56.20;101602.38;5059608;28;45582;-94
2021/08/12 00:32:15;;;;;;;;;27.50;26.75;;;;;20.76;56.30;101603.44;5059051;28;47485;-93
2021/08/12 00:34:40;;;;;;;;;30.75;28.50;;;;;20.74;56.00;101602.69;5057803;28;45244;-93
2021/08/12 00:37:06;;;;;;;;;32.25;28.00;;;;;20.72;56.10;101599.28;5042237;28;45440;-93
2021/08/12 00:39:32;;;;;;;;;29.75;28.25;;;;;20.71;56.43;101603.75;5042359;28;45226;-93
2021/08/12 00:41:58;;;;;;;;;23.00;22.50;;;;;20.70;56.20;101599.41;5042147;28;47431;-92
2021/08/12 00:44:26;;;;;;;;;33.50;30.00;;;;;20.67;56.50;101594.31;5041861;28;45298;-93
2021/08/12 00:46:52;;;;;;;;;32.50;29.25;;;;;20.65;56.43;101597.03;5041822;28;45444;-93
2021/08/12 00:49:18;;;;;;;;;37.00;27.50;;;;;20.59;56.83;101597.44;5042514;28;45346;-94
2021/08/12 00:51:44;;;;;;;;;35.75;32.25;;;;;20.59;56.41;101605.38;5041463;28;47377;-94
2021/08/12 00:54:11;;;;;;;;;32.50;28.00;;;;;20.57;56.80;101594.06;5041764;28;46058;-93
2021/08/12 00:56:36;;;;;;;;;33.75;30.00;;;;;20.55;56.88;101590.69;5041987;28;45329;-93
2021/08/12 00:59:02;;;;;;;;;28.25;26.50;;;;;20.51;56.33;101587.38;5042450;28;45440;-93
2021/08/12 01:01:27;;;;;;;;;32.50;30.25;;;;;20.50;56.94;101592.78;5059945;28;45205;-93
2021/08/12 01:03:58;;;;;;;;;28.75;25.00;;;;;20.45;57.10;101592.22;5041970;28;45274;-93
2021/08/12 01:06:40;;;;;;;;;33.50;30.00;;;;;20.42;57.01;101586.16;5041778;28;45393;-92
2021/08/12 01:09:32;;;;;;;;;32.00;29.75;;;;;20.38;56.90;101582.06;5041571;28;45239;-93
2021/08/12 01:12:04;;;;;;;;;28.75;25.50;;;;;20.37;57.25;101580.34;5040968;28;47385;-93
2021/08/12 01:14:41;;;;;;;;;29.00;27.00;;;;;20.32;56.75;101578.94;5041624;28;44817;-93
2021/08/12 01:17:14;;;;;;;;;25.00;24.25;;;;;20.28;57.56;101581.78;5041442;28;45295;-93
2021/08/12 01:20:05;;;;;;;;;35.00;30.50;;;;;20.28;57.21;101581.78;5041784;28;45345;-93
2021/08/12 01:22:35;;;;;;;;;34.25;30.00;;;;;20.27;57.00;101588.00;5059526;28;45465;-93
2021/08/12 01:25:09;;;;;;;;;36.50;30.25;;;;;20.21;57.42;101588.41;5041391;28;45350;-93
2021/08/12 01:27:37;;;;;;;;;33.75;31.50;;;;;20.19;57.55;101586.81;5041213;28;45278;-94
2021/08/12 01:30:12;;;;;;;;;33.00;28.75;;;;;20.21;57.36;101595.47;5042012;28;45251;-93
2021/08/12 01:33:00;;;;;;;;;34.75;30.00;;;;;20.19;57.62;101597.38;5041252;28;47207;-93
2021/08/12 01:35:29;;;;;;;;;36.75;32.25;;;;;20.14;57.63;101590.56;5040673;28;45790;-93
2021/08/12 01:38:01;;;;;;;;;30.75;27.50;;;;;20.15;57.58;101594.91;5041213;28;45326;-93
2021/08/12 01:40:29;;;;;;;;;30.50;27.25;;;;;20.12;58.00;101586.34;5041369;28;45519;-94
2021/08/12 01:42:57;;;;;;;;;34.00;30.50;;;;;20.08;57.99;101587.50;5040990;28;47030;-94
2021/08/12 01:45:25;;;;;;;;;38.50;30.50;;;;;20.08;57.80;101588.31;5040623;28;45411;-94
2021/08/12 01:47:54;;;;;;;;;28.75;27.75;;;;;20.02;57.70;101575.50;5057909;28;45386;-93
2021/08/12 01:50:21;;;;;;;;;27.50;25.00;;;;;20.03;57.96;101596.56;5057885;28;45310;-93
2021/08/12 01:52:49;;;;;;;;;32.25;28.00;;;;;20.01;57.94;101581.75;5040824;28;47327;-93
2021/08/12 01:55:17;;;;;;;;;30.00;26.75;;;;;20.00;58.03;101593.25;5058632;28;45476;-94
2021/08/12 01:57:44;;;;;;;;;29.25;26.25;;;;;19.98;58.18;101593.34;5041007;28;45377;-94
2021/08/12 02:00:11;;;;;;;;;36.00;30.00;;;;;19.95;58.28;101580.28;5041225;28;45255;-93
2021/08/12 02:02:37;;;;;;;;;29.75;26.75;;;;;19.90;57.90;101574.44;5040817;28;47154;-93
2021/08/12 02:05:04;;;;;;;;;25.00;23.50;;;;;19.93;58.18;101581.31;5041218;28;45257;-94
2021/08/12 02:07:31;;;;;;;;;28.00;25.00;;;;;19.91;58.29;101581.44;5056976;28;45380;-93
2021/08/12 02:09:57;;;;;;;;;27.00;25.50;;;;;19.90;58.29;101590.28;5041202;28;45497;-93
2021/08/12 02:12:23;;;;;;;;;29.75;26.75;;;;;19.88;58.60;101590.41;5040452;28;47211;-93
2021/08/12 02:14:48;;;;;;;;;28.50;28.00;;;;;19.85;58.41;101590.59;5041204;28;45235;-93
2021/08/12 02:17:13;;;;;;;;;28.50;26.50;;;;;19.85;58.94;101603.78;5040806;28;45582;-94
2021/08/12 02:19:40;;;;;;;;;34.25;28.25;;;;;19.83;58.70;101600.41;5040835;28;45235;-93
2021/08/12 02:22:16;;;;;;;;;29.50;27.75;;;;;19.79;58.77;101593.59;5039606;28;46944;-93
2021/08/12 02:25:06;;;;;;;;;31.25;29.25;;;;;19.81;59.07;101591.72;5058548;28;45410;-94
2021/08/12 02:27:41;;;;;;;;;30.50;29.00;;;;;19.75;59.38;101584.16;5040673;28;44775;-94
2021/08/12 02:30:08;;;;;;;;;33.75;29.50;;;;;19.74;58.89;101577.19;5040526;28;45388;-94
2021/08/12 02:32:35;;;;;;;;;28.75;26.75;;;;;19.71;58.85;101572.09;5039559;28;47972;-93
2021/08/12 02:35:02;;;;;;;;;27.00;24.00;;;;;19.69;58.96;101580.13;5040359;28;45328;-93
2021/08/12 02:37:31;;;;;;;;;28.75;27.25;;;;;19.70;59.08;101580.97;5040396;28;45247;-93
2021/08/12 02:39:58;;;;;;;;;21.50;20.50;;;;;19.69;59.15;101579.28;5040957;28;45477;-94
2021/08/12 02:42:24;;;;;;;;;31.75;27.25;;;;;19.63;59.08;101576.06;5057036;28;47317;-93
2021/08/12 02:44:51;;;;;;;;;25.00;24.00;;;;;19.61;58.87;101580.59;5039983;28;46406;-93
2021/08/12 02:47:20;;;;;;;;;28.75;25.50;;;;;19.60;59.42;101583.31;5040388;28;45290;-93
2021/08/12 02:49:49;;;;;;;;;28.00;25.25;;;;;19.62;59.35;101590.22;5040215;28;45370;-93
2021/08/12 02:52:15;;;;;;;;;30.25;25.75;;;;;19.56;59.52;101590.59;5040040;28;47257;-93
2021/08/12 02:54:44;;;;;;;;;23.50;22.00;;;;;19.58;59.57;101593.97;5040314;28;45432;-93
2021/08/12 02:57:10;;;;;;;;;25.75;24.50;;;;;19.53;59.42;101588.13;5040149;28;45273;-93
2021/08/12 02:59:36;;;;;;;;;30.00;25.25;;;;;19.52;59.55;101588.25;5039865;28;45440;-93
2021/08/12 03:02:03;;;;;;;;;27.50;24.50;;;;;19.53;59.70;101590.75;5039733;28;47655;-93
2021/08/12 03:04:29;;;;;;;;;23.25;20.50;;;;;19.52;59.52;101588.25;5039318;28;45794;-93
2021/08/12 03:06:59;;;;;;;;;21.00;21.00;;;;;19.52;59.64;101582.97;5040154;28;44780;-93
2021/08/12 03:09:26;;;;;;;;;22.50;21.00;;;;;19.45;59.62;101575.38;5040503;28;45511;-93
2021/08/12 03:11:55;;;;;;;;;23.75;20.75;;;;;19.43;59.23;101579.91;5057822;28;45458;-93
2021/08/12 03:14:21;;;;;;;;;21.00;21.00;;;;;19.42;59.72;101577.38;5039986;28;45271;-93
2021/08/12 03:16:47;;;;;;;;;21.50;21.00;;;;;19.44;59.64;101580.78;5040084;28;45235;-94
2021/08/12 03:19:16;;;;;;;;;20.75;19.00;;;;;19.43;59.43;101579.06;5058527;28;45210;-93
2021/08/12 03:22:05;;;;;;;;;22.25;19.25;;;;;19.38;59.72;101570.59;5039659;28;47349;-94
2021/08/12 03:24:34;;;;;;;;;20.25;18.50;;;;;19.36;59.34;101571.50;5039137;28;45726;-93
2021/08/12 03:27:00;;;;;;;;;25.50;20.75;;;;;19.39;60.00;101572.28;5058032;28;45492;-93
2021/08/12 03:29:25;;;;;;;;;22.00;20.75;;;;;19.33;59.90;101566.44;5040007;28;45396;-93
2021/08/12 03:31:51;;;;;;;;;20.75;19.00;;;;;19.35;59.83;101574.25;5038141;28;47441;-93
2021/08/12 03:34:16;;;;;;;;;29.00;22.50;;;;;19.31;59.88;101567.47;5039742;28;45357;-92
2021/08/12 03:36:42;;;;;;;;;22.25;20.75;;;;;19.34;60.01;101572.53;5056713;28;45399;-93
2021/08/12 03:39:08;;;;;;;;;14.25;14.00;;;;;19.31;60.19;101570.94;5039942;28;45446;-92
2021/08/12 03:41:33;;;;;;;;;18.00;18.00;;;;;19.29;60.19;101561.41;5039660;28;48155;-93
2021/08/12 03:43:59;;;;;;;;;18.50;17.25;;;;;19.29;60.25;101564.06;5039139;28;45591;-93
2021/08/12 03:46:24;;;;;;;;;23.00;20.00;;;;;19.25;59.96;101562.56;5039365;28;44724;-92
2021/08/12 03:48:49;;;;;;;;;19.00;19.00;;;;;19.29;60.18;101574.59;5040219;28;45282;-93
2021/08/12 03:51:15;;;;;;;;;19.50;18.50;;;;;19.29;60.37;101580.75;5035469;28;47961;-93
2021/08/12 03:53:40;;;;;;;;;19.25;15.25;;;;;19.28;60.54;101579.06;5035946;28;45302;-93
2021/08/12 03:56:06;;;;;;;;;15.00;14.75;;;;;19.25;60.42;101575.75;5036345;28;45236;-93
2021/08/12 03:58:32;;;;;;;;;15.50;15.50;;;;;19.20;60.56;101568.09;5037422;28;45375;-93
2021/08/12 04:00:58;;;;;;;;;12.25;9.50;;;;;19.23;60.47;101575.84;5036166;28;47098;-93
2021/08/12 04:03:25;;;;;;;;;16.75;14.00;;;;;19.23;60.29;101578.47;5035844;28;45468;-92
2021/08/12 04:05:50;;;;;;;;;15.00;14.25;;;;;19.17;60.26;101574.41;5052719;28;45443;-93
2021/08/12 04:08:16;;;;;;;;;16.75;14.00;;;;;19.18;60.83;101573.47;5036133;28;45318;-93
2021/08/12 04:10:42;;;;;;;;;12.50;12.00;;;;;19.19;60.51;101571.69;5054228;28;47209;-93
2021/08/12 04:13:07;;;;;;;;;11.25;11.25;;;;;19.19;60.62;101574.31;5039441;28;44828;-93
2021/08/12 04:15:33;;;;;;;;;13.50;11.50;;;;;19.18;60.34;101568.22;5022357;28;45433;-92
2021/08/12 04:17:58;;;;;;;;;12.75;11.00;;;;;19.15;60.64;101564.88;5056417;28;45295;-92
2021/08/12 04:20:24;;;;;;;;;12.00;12.00;;;;;19.14;60.27;101563.19;5039478;28;46926;-93
2021/08/12 04:22:49;;;;;;;;;14.00;12.50;;;;;19.12;60.57;101560.63;5038855;28;45580;-92
2021/08/12 04:25:15;;;;;;;;;13.75;11.75;;;;;19.14;60.46;101560.53;5039101;28;45287;-92
2021/08/12 04:27:40;;;;;;;;;15.50;14.75;;;;;19.11;60.07;101551.03;5039094;28;45277;-92
2021/08/12 04:30:07;;;;;;;;;12.75;11.00;;;;;19.08;60.39;101552.06;5038883;28;47151;-92
2021/08/12 04:32:32;;;;;;;;;13.75;12.00;;;;;19.12;60.55;101560.63;5038787;28;45362;-92
2021/08/12 04:34:59;;;;;;;;;12.75;12.00;;;;;19.09;60.31;101555.56;5038957;28;45278;-91
2021/08/12 04:37:24;;;;;;;;;14.50;12.25;;;;;19.08;60.50;101556.50;5039106;28;45436;-93
2021/08/12 04:39:50;;;;;;;;;16.25;14.50;;;;;19.09;60.50;101553.78;5038430;28;47241;-92
2021/08/12 04:42:15;;;;;;;;;13.00;13.00;;;;;19.08;60.58;101565.25;5038574;28;45514;-92
2021/08/12 04:44:41;;;;;;;;;12.00;12.00;;;;;19.08;60.58;101564.41;5039129;28;45828;-92
2021/08/12 04:47:07;;;;;;;;;12.75;10.25;;;;;19.07;60.59;101554.81;5038667;28;45455;-92
2021/08/12 04:49:35;;;;;;;;;13.75;12.75;;;;;19.06;60.29;101558.34;5038622;28;48161;-92
2021/08/12 04:52:00;;;;;;;;;11.75;9.50;;;;;19.05;60.37;101554.03;5041791;28;44808;-92
2021/08/12 04:54:26;;;;;;;;;14.00;11.00;;;;;19.01;60.38;101553.34;5042014;28;45696;-93
2021/08/12 04:56:54;;;;;;;;;9.25;9.25;;;;;19.03;60.47;101555.88;5042241;28;45255;-91
2021/08/12 04:59:21;;;;;;;;;11.75;10.25;;;;;19.00;60.35;101550.78;5041327;28;46960;-93
2021/08/12 05:01:47;;;;;;;;;11.00;11.00;;;;;19.02;60.68;101554.19;5041134;28;45460;-93
2021/08/12 05:04:12;;;;;;;;;11.50;9.75;;;;;18.98;60.33;101556.13;5042058;28;45439;-93
2021/08/12 05:06:37;;;;;;;;;12.50;9.25;;;;;19.00;60.70;101549.00;5042103;28;45434;-92
2021/08/12 05:09:03;;;;;;;;;9.25;8.50;;;;;18.99;60.71;101552.59;5041724;28;46943;-92
2021/08/12 05:11:31;;;;;;;;;12.50;11.25;;;;;19.00;60.65;101556.06;5041778;28;45310;-92
2021/08/12 05:13:57;;;;;;;;;12.75;12.75;;;;;19.00;60.95;101558.69;5041866;28;45420;-92
2021/08/12 05:16:22;;;;;;;;;14.75;13.00;;;;;18.96;61.15;101545.69;5041837;28;45422;-93
2021/08/12 05:18:48;;;;;;;;;11.50;11.00;;;;;19.02;61.02;101557.66;5041588;28;46910;-93
2021/08/12 05:21:14;;;;;;;;;15.00;13.00;;;;;19.03;61.10;101559.38;5041010;28;45585;-92
2021/08/12 05:23:43;;;;;;;;;11.75;11.00;;;;;19.05;61.23;101559.31;5058288;28;45323;-93
2021/08/12 05:26:08;;;;;;;;;14.50;13.75;;;;;19.06;60.96;101553.09;5041717;28;46151;-92
2021/08/12 05:28:34;;;;;;;;;14.75;13.25;;;;;19.07;61.06;101550.38;5041269;28;48420;-92
2021/08/12 05:31:04;;;;;;;;;12.25;12.25;;;;;19.12;61.66;101562.44;5040211;28;45592;-94
2021/08/12 05:33:30;;;;;;;;;11.00;11.00;;;;;19.07;61.24;101554.81;5041514;28;45489;-92
2021/08/12 05:35:55;;;;;;;;;13.00;11.75;;;;;19.15;61.25;101570.16;5041250;28;45295;-92
2021/08/12 05:38:26;;;;;;;;;15.75;13.50;;;;;19.11;61.27;101566.03;5040643;28;47016;-94
2021/08/12 05:40:55;;;;;;;;;12.75;10.50;;;;;19.18;61.32;101572.63;5040981;28;45246;-92
2021/08/12 05:43:20;;;;;;;;;15.00;12.25;;;;;19.20;60.93;101568.09;5059008;28;45289;-93
2021/08/12 05:45:45;;;;;;;;;12.50;12.25;;;;;19.21;61.34;101570.66;5041200;28;45433;-93
2021/08/12 05:48:11;;;;;;;;;11.25;11.25;;;;;19.24;61.28;101566.97;5041326;28;47237;-92
2021/08/12 05:50:43;;;;;;;;;16.75;13.75;;;;;19.28;61.35;101567.63;5040872;28;45547;-91
2021/08/12 05:53:13;;;;;;;;;14.25;12.75;;;;;19.29;61.28;101561.41;5041161;28;44783;-93
2021/08/12 05:55:39;;;;;;;;;14.50;13.25;;;;;19.31;61.24;101562.19;5041185;28;45462;-92
2021/08/12 05:58:04;;;;;;;;;12.00;12.00;;;;;19.34;61.11;101559.34;5040639;28;47665;-92
2021/08/12 06:00:30;;;;;;;;;15.25;12.25;;;;;19.36;60.55;101560.94;5040920;28;45311;-93
2021/08/12 06:03:03;;;;;;;;;12.25;10.50;;;;;19.35;61.19;101551.34;5040196;28;45404;-92
2021/08/12 06:05:29;;;;;;;;;9.75;9.75;;;;;19.40;61.30;101569.56;5041028;28;45305;-94
2021/08/12 06:07:54;;;;;;;;;14.75;10.00;;;;;19.42;61.06;101569.44;5040361;28;47401;-92
2021/08/12 06:10:21;;;;;;;;;12.75;11.00;;;;;19.46;61.46;101570.97;5040330;28;45475;-92
2021/08/12 06:12:46;;;;;;;;;9.25;9.25;;;;;19.46;61.24;101573.59;5057621;28;45278;-93
2021/08/12 06:15:12;;;;;;;;;14.00;10.25;;;;;19.53;61.21;101571.44;5041020;28;45644;-92
2021/08/12 06:17:37;;;;;;;;;13.00;11.50;;;;;19.57;61.04;101579.09;5040195;28;47200;-92
2021/08/12 06:20:03;;;;;;;;;11.25;9.75;;;;;19.62;61.43;101577.00;5040315;28;44865;-92
2021/08/12 06:22:29;;;;;;;;;12.00;10.25;;;;;19.67;61.14;101582.00;5040233;28;45473;-93
2021/08/12 06:24:54;;;;;;;;;13.00;12.75;;;;;19.67;61.31;101582.00;5040818;28;45440;-92
2021/08/12 06:27:22;;;;;;;;;12.75;12.00;;;;;19.73;60.99;101586.06;5039869;28;47477;-92
2021/08/12 06:29:56;;;;;;;;;11.75;11.75;;;;;19.76;60.96;101580.59;5040266;28;45678;-93
2021/08/12 06:32:21;;;;;;;;;12.75;11.75;;;;;19.86;61.05;101589.63;5039455;28;44899;-92
2021/08/12 06:34:47;;;;;;;;;10.25;10.25;;;;;19.91;61.06;101589.38;5057285;28;45472;-92
2021/08/12 06:37:12;;;;;;;;;12.00;11.50;;;;;19.97;60.77;101583.72;5040414;28;46682;-93
2021/08/12 06:39:38;;;;;;;;;10.25;10.25;;;;;19.99;60.55;101576.53;5040333;28;45394;-92
2021/08/12 06:42:06;;;;;;;;;8.25;8.25;;;;;20.06;60.85;101576.16;5035811;28;45343;-91
2021/08/12 06:44:31;;;;;;;;;13.25;10.25;;;;;20.10;60.65;101585.59;5040245;28;45253;-93
2021/08/12 06:46:57;;;;;;;;;14.75;12.00;;;;;20.15;60.76;101583.50;5038707;28;47290;-92
2021/08/12 06:49:22;;;;;;;;;11.75;10.25;;;;;20.15;60.66;101588.78;5056512;28;45370;-92
2021/08/12 06:51:48;;;;;;;;;10.75;10.25;;;;;20.17;61.00;101589.53;5039480;28;45314;-92
2021/08/12 06:54:14;;;;;;;;;10.00;10.00;;;;;20.21;60.36;101588.41;5040230;28;45531;-93
2021/08/12 06:56:40;;;;;;;;;11.00;10.00;;;;;20.27;60.38;101589.81;5047673;28;47781;-92
2021/08/12 06:59:07;;;;;;;;;13.00;11.33;;;;;20.26;60.45;101583.69;5036659;28;45113;-92
2021/08/12 07:01:33;;;;;;;;;11.33;10.33;;;;;20.32;60.61;101587.69;5019860;28;45459;-93
2021/08/12 07:03:59;;;;;;;;;12.00;9.67;;;;;20.34;60.61;101577.91;5052118;28;45532;-92
2021/08/12 07:06:25;;;;;;;;;14.33;9.67;;;;;20.38;60.13;101582.06;5029342;28;47871;-93
2021/08/12 07:08:54;;;;;;;;;11.00;10.33;;;;;20.41;60.04;101573.06;5050939;28;45407;-92
2021/08/12 07:11:20;;;;;;;;;11.33;11.00;;;;;20.41;60.10;101565.16;5040035;28;44908;-92
2021/08/12 07:13:46;;;;;;;;;13.00;13.00;;;;;20.48;60.29;101563.78;5037179;28;45630;-91
2021/08/12 07:16:14;;;;;;;;;15.25;12.00;;;;;20.56;60.34;101553.56;5052900;28;47353;-92
2021/08/12 07:18:40;;;;;;;;;14.25;13.50;;;;;20.64;60.23;101560.97;5051607;28;45580;-92
2021/08/12 07:21:15;;;;;;;;;11.75;11.75;;;;;20.67;60.25;101560.78;5056141;28;45231;-93
2021/08/12 07:23:40;;;;;;;;;12.25;11.25;;;;;20.69;60.22;101563.34;5035214;28;45430;-92
2021/08/12 07:26:06;;;;;;;;;17.25;14.50;;;;;20.76;59.91;101561.13;5056372;28;46336;-92
2021/08/12 07:28:33;;;;;;;;;13.00;10.75;;;;;20.84;59.68;101569.41;5050757;28;46189;-92
2021/08/12 07:30:59;;;;;;;;;11.33;11.33;;;;;20.90;59.81;101566.38;5038941;28;45558;-92
2021/08/12 07:33:24;;;;;;;;;12.00;11.00;;;;;20.98;60.05;101573.81;5052005;28;44828;-92
2021/08/12 07:35:49;;;;;;;;;10.00;9.00;;;;;21.05;59.42;101576.84;5058542;28;47064;-91
2021/08/12 07:38:15;;;;;;;;;11.00;8.75;;;;;21.11;59.25;101576.47;5059413;28;45891;-92
2021/08/12 07:40:40;;;;;;;;;11.67;10.67;;;;;21.19;59.71;101581.22;5035859;28;45429;-92
2021/08/12 07:43:06;;;;;;;;;10.00;10.00;;;;;21.22;59.53;101570.44;5036103;28;45620;-92
2021/08/12 07:45:34;;;;;;;;;9.67;8.67;;;;;21.27;58.94;101573.63;5040282;28;47189;-92
2021/08/12 07:48:00;;;;;;;;;9.00;9.00;;;;;21.31;59.28;101553.06;5036802;28;45382;-92
2021/08/12 07:50:26;;;;;;;;;9.00;8.67;;;;;21.40;59.24;101552.44;5040358;28;46319;-93
2021/08/12 07:52:54;;;;;;;;;11.00;10.33;;;;;21.52;59.12;101557.84;5039300;28;45451;-93
2021/08/12 07:55:20;;;;;;;;;11.00;9.33;;;;;21.60;59.25;101566.09;5027191;28;47387;-92
2021/08/12 07:57:47;;;;;;;;;12.00;9.33;;;;;21.63;58.69;101556.13;5041616;28;45270;-91
2021/08/12 08:00:14;;;;;;;;;9.33;9.00;;;;;21.70;58.18;101561.88;5051561;28;45365;-91
2021/08/12 08:02:47;;;;;;;;;10.33;9.67;;;;;21.82;58.22;101564.59;5059533;28;45481;-91
2021/08/12 08:05:17;;;;;;;;;14.00;10.67;;;;;21.87;58.26;101563.34;5058415;28;46410;-92
2021/08/12 08:07:43;;;;;;;;;9.00;9.00;;;;;21.96;58.64;101550.38;5059113;28;45246;-92
2021/08/12 08:10:09;;;;;;;;;10.33;10.33;;;;;22.06;58.23;101564.66;5057708;28;45423;-91
2021/08/12 08:12:35;;;;;;;;;12.67;12.00;;;;;22.17;58.51;101566.53;5041303;28;44863;-90
2021/08/12 08:15:00;;;;;;;;;13.33;11.00;;;;;22.25;57.97;101563.31;5041661;28;46018;-92
2021/08/12 08:17:26;;;;;;;;;14.25;14.00;;;;;22.33;58.08;101560.09;5034678;28;45641;-91
2021/08/12 08:19:53;;;;;;;;;12.50;12.50;;;;;22.41;58.18;101558.59;5057305;28;45346;-92
2021/08/12 08:22:19;;;;;;;;;13.67;12.00;;;;;22.49;58.16;101555.38;5042181;28;45517;-91
2021/08/12 08:24:52;;;;;;;;;12.50;12.00;;;;;22.57;57.93;101549.53;5041459;28;46368;-92
2021/08/12 08:27:17;;;;;;;;;13.33;11.33;;;;;22.66;57.96;101556.81;5041729;28;45509;-92
2021/08/12 08:29:43;;;;;;;;;13.00;12.00;;;;;22.71;57.78;101559.09;5039477;28;45254;-91
2021/08/12 08:32:08;;;;;;;;;13.00;10.25;;;;;22.77;58.04;101556.00;5021887;28;45295;-92
2021/08/12 08:34:34;;;;;;;;;12.25;11.50;;;;;22.85;57.67;101547.44;5041640;28;46305;-92
2021/08/12 08:37:00;;;;;;;;;12.33;11.33;;;;;22.91;57.43;101540.84;5041771;28;45274;-92
2021/08/12 08:39:26;;;;;;;;;12.67;12.00;;;;;23.00;57.71;101548.09;5033696;28;45501;-92
2021/08/12 08:41:54;;;;;;;;;14.00;11.33;;;;;23.04;57.55;101546.03;5038738;28;45496;-92
2021/08/12 08:44:23;;;;;;;;;11.33;10.33;;;;;23.12;56.97;101548.09;5038416;28;48082;-92
2021/08/12 08:46:51;;;;;;;;;13.00;11.67;;;;;23.23;56.57;101556.09;5053801;28;44931;-92
2021/08/12 08:49:21;;;;;;;;;11.67;9.33;;;;;23.27;56.93;101557.56;5041329;28;45215;-92
2021/08/12 08:51:54;;;;;;;;;10.33;9.00;;;;;23.32;56.83;101565.19;5058188;28;45421;-92
2021/08/12 08:54:22;;;;;;;;;11.00;9.00;;;;;23.41;56.59;101563.66;5040882;28;47401;-92
2021/08/12 08:56:47;;;;;;;;;9.00;9.00;;;;;23.45;56.37;101571.25;5039328;28;45546;-92
2021/08/12 08:59:15;;;;;;;;;11.00;10.67;;;;;23.51;56.56;101563.75;5049760;28;46288;-92
2021/08/12 09:01:40;;;;;;;;;12.00;12.00;;;;;23.60;55.99;101569.19;5056045;28;45373;-93
2021/08/12 09:04:08;;;;;;;;;13.00;10.33;;;;;23.66;56.27;101570.53;5047482;28;46954;-93
2021/08/12 09:06:36;;;;;;;;;8.67;6.67;;;;;23.74;56.26;101581.38;5053881;28;45507;-93
2021/08/12 09:09:03;;;;;;;;;14.33;11.00;;;;;23.81;55.95;101580.91;5041559;28;45339;-92
2021/08/12 09:11:37;;;;;;;;;10.00;8.33;;;;;23.85;56.23;101580.56;5037047;28;45318;-93
2021/08/12 09:14:46;;;;;;;;;;;;;;;;;;;;;
2021/08/12 09:17:49;;;;;;;;;11.33;10.00;;;;;24.01;55.45;101584.63;5038528;28;71995;-93
2021/08/12 09:20:17;;;;;;;;;9.00;9.00;;;;;24.06;55.33;101573.63;5020067;28;45406;-92
2021/08/12 09:23:07;;;;;;;;;10.33;9.33;;;;;24.17;55.24;101570.97;5027082;28;44834;-90
2021/08/12 09:25:41;;;;;;;;;10.00;10.00;;;;;24.26;54.63;101578.19;5039240;28;45633;-93
2021/08/12 09:28:19;;;;;;;;;11.00;9.67;;;;;24.34;54.84;101582.06;5038696;28;45455;-92
2021/08/12 09:31:00;;;;;;;;;10.33;10.00;;;;;24.47;55.33;101589.84;5040455;28;45386;-94
2021/08/12 09:33:58;;;;;;;;;9.00;9.00;;;;;24.58;55.13;101581.00;5056175;28;45606;-92
2021/08/12 09:36:37;;;;;;;;;8.67;8.67;;;;;24.71;55.12;101578.16;5040625;28;47193;-92
2021/08/12 09:39:13;;;;;;;;;9.00;8.33;;;;;24.89;54.99;101574.00;5040713;28;45989;-93
2021/08/12 09:42:05;;;;;;;;;8.33;6.67;;;;;25.05;55.24;101560.22;5040628;28;45472;-92
2021/08/12 09:44:53;;;;;;;;;11.00;9.00;;;;;25.22;54.70;101568.56;5054069;28;45505;-93
2021/08/12 09:47:18;;;;;;;;;11.33;8.67;;;;;25.38;54.56;101570.78;5056728;28;48294;-91
2021/08/12 09:49:51;;;;;;;;;8.00;8.00;;;;;25.52;54.46;101566.91;5039551;28;45265;-92
2021/08/12 09:52:21;;;;;;;;;11.33;10.33;;;;;25.68;54.29;101568.28;5040400;28;45331;-92
2021/08/12 09:55:06;;;;;;;;;;;;;;;;;;;;;
2021/08/12 09:57:46;;;;;;;;;9.33;9.00;;;;;25.99;53.94;101574.38;5053978;28;74388;-92
2021/08/12 10:00:28;;;;;;;;;11.00;11.00;;;;;26.16;54.17;101574.72;5017723;28;45322;-92
2021/08/12 10:02:54;;;;;;;;;9.00;8.67;;;;;26.34;53.50;101566.06;5050223;28;45405;-92
2021/08/12 10:05:19;;;;;;;;;9.00;7.33;;;;;26.48;53.41;101562.94;5031417;28;45457;-92
2021/08/12 10:07:50;;;;;;;;;8.00;8.00;;;;;26.64;53.16;101561.53;5019040;28;47317;-92
2021/08/12 10:10:17;;;;;;;;;9.33;8.67;;;;;26.76;52.23;101565.75;5028636;28;49202;-92
2021/08/12 10:12:46;;;;;;;;;9.33;8.00;;;;;26.90;52.48;101566.31;5020336;28;45561;-92
2021/08/12 10:15:17;;;;;;;;;9.00;9.00;;;;;27.05;51.37;101564.03;5018916;28;45352;-92
2021/08/12 10:17:44;;;;;;;;;7.33;7.33;;;;;27.16;51.50;101565.72;5037876;28;46147;-92
2021/08/12 10:20:17;;;;;;;;;12.67;11.33;;;;;27.30;51.69;101562.56;5037574;28;45262;-92
2021/08/12 10:22:47;;;;;;;;;10.33;9.00;;;;;27.45;50.74;101554.09;5013931;28;45417;-92
2021/08/12 10:25:14;;;;;;;;;9.00;8.00;;;;;27.54;50.45;101549.69;5019044;28;45350;-92
2021/08/12 10:27:44;;;;;;;;;9.00;8.67;;;;;27.69;50.56;101556.25;4999827;28;47154;-92
2021/08/12 10:30:10;;;;;;;;;9.67;9.00;;;;;27.84;50.17;101559.25;5037339;28;45368;-92
2021/08/12 10:32:42;;;;;;;;;9.67;9.00;;;;;27.97;49.05;101548.22;5037619;28;45328;-92
2021/08/12 10:35:09;;;;;;;;;10.00;10.00;;;;;28.17;49.89;101560.63;5015279;28;45547;-92
2021/08/12 10:37:34;;;;;;;;;9.00;8.00;;;;;28.36;49.62;101555.13;5007310;28;45578;-92
2021/08/12 10:40:00;;;;;;;;;9.00;8.33;;;;;28.58;49.35;101554.78;5027187;28;45305;-92
2021/08/12 10:42:26;;;;;;;;;9.00;8.33;;;;;28.76;48.49;101546.75;5011630;28;45748;-92
2021/08/12 10:44:51;;;;;;;;;8.00;8.00;;;;;28.97;47.91;101549.09;5003700;28;45519;-93
2021/08/12 10:47:43;;;;;;;;;8.33;8.33;;;;;29.26;47.62;101552.44;5018427;28;47058;-92
2021/08/12 10:50:34;;;;;;;;;7.33;7.33;;;;;29.52;46.88;101546.22;5029462;28;45555;-94
2021/08/12 10:53:12;;;;;;;;;8.00;8.00;;;;;29.80;45.91;101543.31;5021132;28;45498;-91
2021/08/12 10:55:38;;;;;;;;;7.00;6.00;;;;;30.04;45.53;101544.34;5001053;28;45690;-92
2021/08/12 10:58:22;;;;;;;;;9.00;8.00;;;;;30.23;45.58;101552.09;4983738;28;47335;-92
2021/08/12 11:00:57;;;;;;;;;7.00;7.00;;;;;30.33;44.34;101543.06;4974572;28;45569;-92
2021/08/12 11:03:34;;;;;;;;;8.67;8.33;;;;;30.44;44.55;101540.03;4976242;28;45431;-92
2021/08/12 11:06:16;;;;;;;;;10.00;8.33;;;;;30.59;44.17;101542.88;4973585;28;45394;-91
2021/08/12 11:08:54;;;;;;;;;9.67;8.00;;;;;30.83;43.69;101548.44;4972465;28;47704;-92
2021/08/12 11:11:22;;;;;;;;;11.67;10.67;;;;;31.03;43.34;101540.84;4976253;28;45547;-92
2021/08/12 11:13:53;;;;;;;;;10.67;10.00;;;;;31.26;42.76;101535.56;4976258;28;45545;-93
2021/08/12 11:16:20;;;;;;;;;8.67;8.67;;;;;31.42;42.88;101537.38;4992537;28;45295;-91
2021/08/12 11:18:52;;;;;;;;;8.67;8.67;;;;;31.66;42.58;101540.94;4975731;28;47419;-92
2021/08/12 11:21:40;;;;;;;;;9.67;9.00;;;;;31.90;42.31;101527.56;4978930;28;45436;-91